sensor_id;sensor_type;location;lat;lon;timestamp;pressure;altitude;pressure_sealevel;temperature;humidity
80733;BME280;70130;44.534;18.678;2023-11-19T00:00:49;99724.88;;;0.21;85.23
80733;BME280;70130;44.534;18.678;2023-11-19T00:03:19;99722.78;;;0.07;85.71
80733;BME280;70130;44.534;18.678;2023-11-19T00:05:45;99736.94;;;0.17;86.23
80733;BME280;70130;44.534;18.678;2023-11-19T00:08:17;99733.59;;;0.22;86.28
80733;BME280;70130;44.534;18.678;2023-11-19T00:10:47;99731.97;;;0.21;86.17
80733;BME280;70130;44.534;18.678;2023-11-19T00:13:12;99730.72;;;0.23;86.18
80733;BME280;70130;44.534;18.678;2023-11-19T00:15:50;99698.06;;;0.13;86.41
80733;BME280;70130;44.534;18.678;2023-11-19T00:18:22;99717.69;;;0.33;86.58
80733;BME280;70130;44.534;18.678;2023-11-19T00:20:50;99719.44;;;0.28;86.61
80733;BME280;70130;44.534;18.678;2023-11-19T00:23:16;99720.88;;;0.19;86.43
80733;BME280;70130;44.534;18.678;2023-11-19T00:25:42;99719.50;;;0.16;86.57
80733;BME280;70130;44.534;18.678;2023-11-19T00:28:10;99713.50;;;0.21;86.38
80733;BME280;70130;44.534;18.678;2023-11-19T00:30:36;99686.84;;;0.06;86.65
80733;BME280;70130;44.534;18.678;2023-11-19T00:36:17;99691.19;;;0.12;86.06
80733;BME280;70130;44.534;18.678;2023-11-19T00:38:45;99711.50;;;0.11;85.96
80733;BME280;70130;44.534;18.678;2023-11-19T00:41:11;99651.19;;;-0.14;86.15
80733;BME280;70130;44.534;18.678;2023-11-19T00:43:40;99669.91;;;0.02;86.19
80733;BME280;70130;44.534;18.678;2023-11-19T00:46:07;99702.31;;;0.14;86.35
80733;BME280;70130;44.534;18.678;2023-11-19T00:48:33;99707.03;;;0.12;86.26
80733;BME280;70130;44.534;18.678;2023-11-19T00:50:59;99703.34;;;0.13;86.63
80733;BME280;70130;44.534;18.678;2023-11-19T00:53:28;99696.47;;;0.12;86.70
80733;BME280;70130;44.534;18.678;2023-11-19T00:55:53;99681.97;;;-0.03;86.72
80733;BME280;70130;44.534;18.678;2023-11-19T00:58:25;99697.00;;;-0.03;86.77
80733;BME280;70130;44.534;18.678;2023-11-19T01:00:54;99687.41;;;-0.09;87.15
80733;BME280;70130;44.534;18.678;2023-11-19T01:03:26;99665.25;;;-0.25;87.15
80733;BME280;70130;44.534;18.678;2023-11-19T01:05:54;99687.91;;;-0.40;86.98
80733;BME280;70130;44.534;18.678;2023-11-19T01:08:20;99708.75;;;-0.11;87.55
80733;BME280;70130;44.534;18.678;2023-11-19T01:10:49;99694.59;;;-0.21;87.65
80733;BME280;70130;44.534;18.678;2023-11-19T01:13:14;99707.84;;;-0.16;87.07
80733;BME280;70130;44.534;18.678;2023-11-19T01:15:43;99696.03;;;-0.14;87.29
80733;BME280;70130;44.534;18.678;2023-11-19T01:18:27;99703.03;;;-0.19;87.26
80733;BME280;70130;44.534;18.678;2023-11-19T01:20:55;99704.25;;;-0.38;87.39
80733;BME280;70130;44.534;18.678;2023-11-19T01:23:20;99677.56;;;-0.42;87.77
80733;BME280;70130;44.534;18.678;2023-11-19T01:25:49;99691.88;;;-0.38;87.94
80733;BME280;70130;44.534;18.678;2023-11-19T01:28:17;99682.84;;;-0.42;87.65
80733;BME280;70130;44.534;18.678;2023-11-19T01:30:47;99686.41;;;-0.48;87.66
80733;BME280;70130;44.534;18.678;2023-11-19T01:33:18;99701.88;;;-0.40;87.90
80733;BME280;70130;44.534;18.678;2023-11-19T01:35:44;99699.00;;;-0.38;87.64
80733;BME280;70130;44.534;18.678;2023-11-19T01:38:10;99697.38;;;-0.39;87.82
80733;BME280;70130;44.534;18.678;2023-11-19T01:40:38;99687.81;;;-0.57;87.74
80733;BME280;70130;44.534;18.678;2023-11-19T01:43:10;99691.03;;;-0.55;87.37
80733;BME280;70130;44.534;18.678;2023-11-19T01:45:46;99686.19;;;-0.47;88.16
80733;BME280;70130;44.534;18.678;2023-11-19T01:48:14;99664.13;;;-0.69;87.79
80733;BME280;70130;44.534;18.678;2023-11-19T01:50:43;99670.41;;;-0.58;87.75
80733;BME280;70130;44.534;18.678;2023-11-19T01:53:20;99669.94;;;-0.55;88.26
80733;BME280;70130;44.534;18.678;2023-11-19T01:55:49;99672.91;;;-0.52;87.97
80733;BME280;70130;44.534;18.678;2023-11-19T01:58:19;99685.25;;;-0.40;87.78
80733;BME280;70130;44.534;18.678;2023-11-19T02:00:48;99688.63;;;-0.57;87.84
80733;BME280;70130;44.534;18.678;2023-11-19T02:03:17;99678.09;;;-0.68;88.06
80733;BME280;70130;44.534;18.678;2023-11-19T02:05:48;99688.16;;;-0.54;88.44
80733;BME280;70130;44.534;18.678;2023-11-19T02:08:14;99686.22;;;-0.58;88.52
80733;BME280;70130;44.534;18.678;2023-11-19T02:10:44;99674.88;;;-0.59;88.45
80733;BME280;70130;44.534;18.678;2023-11-19T02:13:12;99645.94;;;-0.70;88.47
80733;BME280;70130;44.534;18.678;2023-11-19T02:15:42;99663.19;;;-0.63;88.65
80733;BME280;70130;44.534;18.678;2023-11-19T02:18:23;99663.19;;;-0.63;88.96
80733;BME280;70130;44.534;18.678;2023-11-19T02:20:52;99641.59;;;-0.76;88.53
80733;BME280;70130;44.534;18.678;2023-11-19T02:23:21;99645.41;;;-0.84;88.74
80733;BME280;70130;44.534;18.678;2023-11-19T02:28:20;99652.91;;;-0.64;89.68
80733;BME280;70130;44.534;18.678;2023-11-19T02:30:48;99653.75;;;-0.75;88.76
80733;BME280;70130;44.534;18.678;2023-11-19T02:33:17;99651.00;;;-0.80;88.40
80733;BME280;70130;44.534;18.678;2023-11-19T02:35:43;99637.53;;;-0.96;88.45
80733;BME280;70130;44.534;18.678;2023-11-19T02:38:11;99650.31;;;-0.88;88.40
80733;BME280;70130;44.534;18.678;2023-11-19T02:40:39;99641.75;;;-0.95;88.62
80733;BME280;70130;44.534;18.678;2023-11-19T02:43:07;99646.81;;;-1.05;88.81
80733;BME280;70130;44.534;18.678;2023-11-19T02:45:36;99637.09;;;-1.04;88.51
80733;BME280;70130;44.534;18.678;2023-11-19T02:48:05;99633.19;;;-1.02;88.78
80733;BME280;70130;44.534;18.678;2023-11-19T02:50:34;99616.84;;;-1.15;88.51
80733;BME280;70130;44.534;18.678;2023-11-19T02:53:02;99609.31;;;-1.23;88.86
80733;BME280;70130;44.534;18.678;2023-11-19T02:55:31;99621.31;;;-1.16;89.01
80733;BME280;70130;44.534;18.678;2023-11-19T02:58:01;99614.91;;;-1.20;89.04
80733;BME280;70130;44.534;18.678;2023-11-19T03:03:54;99597.66;;;-1.39;88.75
80733;BME280;70130;44.534;18.678;2023-11-19T03:06:22;99593.16;;;-1.27;89.33
80733;BME280;70130;44.534;18.678;2023-11-19T03:08:58;99602.53;;;-1.19;89.20
80733;BME280;70130;44.534;18.678;2023-11-19T03:11:32;99606.56;;;-1.28;88.50
80733;BME280;70130;44.534;18.678;2023-11-19T03:14:01;99598.53;;;-1.22;89.11
80733;BME280;70130;44.534;18.678;2023-11-19T03:16:34;99604.72;;;-1.28;88.82
80733;BME280;70130;44.534;18.678;2023-11-19T03:19:05;99601.97;;;-1.21;89.62
80733;BME280;70130;44.534;18.678;2023-11-19T03:21:34;99576.59;;;-1.39;89.62
80733;BME280;70130;44.534;18.678;2023-11-19T03:24:02;99572.13;;;-1.50;89.37
80733;BME280;70130;44.534;18.678;2023-11-19T03:26:31;99565.69;;;-1.43;90.36
80733;BME280;70130;44.534;18.678;2023-11-19T03:28:59;99576.22;;;-1.31;89.81
80733;BME280;70130;44.534;18.678;2023-11-19T03:31:28;99568.09;;;-1.29;89.68
80733;BME280;70130;44.534;18.678;2023-11-19T03:33:57;99573.25;;;-1.35;89.16
80733;BME280;70130;44.534;18.678;2023-11-19T03:36:22;99597.28;;;-1.31;89.12
80733;BME280;70130;44.534;18.678;2023-11-19T03:38:49;99597.28;;;-1.31;89.05
80733;BME280;70130;44.534;18.678;2023-11-19T03:41:17;99588.03;;;-1.34;89.23
80733;BME280;70130;44.534;18.678;2023-11-19T03:43:50;99587.56;;;-1.42;88.80
80733;BME280;70130;44.534;18.678;2023-11-19T03:46:37;99581.06;;;-1.51;89.06
80733;BME280;70130;44.534;18.678;2023-11-19T03:49:25;99581.84;;;-1.39;89.62
80733;BME280;70130;44.534;18.678;2023-11-19T03:52:12;99572.69;;;-1.37;89.18
80733;BME280;70130;44.534;18.678;2023-11-19T03:54:41;99567.09;;;-1.40;89.32
80733;BME280;70130;44.534;18.678;2023-11-19T03:57:10;99544.91;;;-1.44;89.65
80733;BME280;70130;44.534;18.678;2023-11-19T03:59:39;99555.75;;;-1.41;89.50
80733;BME280;70130;44.534;18.678;2023-11-19T04:02:07;99554.03;;;-1.47;89.66
80733;BME280;70130;44.534;18.678;2023-11-19T04:04:36;99561.34;;;-1.37;90.04
80733;BME280;70130;44.534;18.678;2023-11-19T04:07:13;99535.88;;;-1.60;89.53
80733;BME280;70130;44.534;18.678;2023-11-19T04:09:41;99541.47;;;-1.45;89.79
80733;BME280;70130;44.534;18.678;2023-11-19T04:12:16;99542.81;;;-1.42;89.46
80733;BME280;70130;44.534;18.678;2023-11-19T04:14:44;99533.88;;;-1.41;89.66
80733;BME280;70130;44.534;18.678;2023-11-19T04:17:13;99541.56;;;-1.40;89.29
80733;BME280;70130;44.534;18.678;2023-11-19T04:19:42;99528.41;;;-1.51;89.87
80733;BME280;70130;44.534;18.678;2023-11-19T04:22:11;99533.13;;;-1.53;89.43
80733;BME280;70130;44.534;18.678;2023-11-19T04:24:40;99546.63;;;-1.50;89.38
80733;BME280;70130;44.534;18.678;2023-11-19T04:27:09;99553.13;;;-1.52;89.65
80733;BME280;70130;44.534;18.678;2023-11-19T04:29:37;99553.50;;;-1.49;90.08
80733;BME280;70130;44.534;18.678;2023-11-19T04:32:06;99508.22;;;-1.74;88.99
80733;BME280;70130;44.534;18.678;2023-11-19T04:34:35;99525.34;;;-1.60;89.31
80733;BME280;70130;44.534;18.678;2023-11-19T04:37:03;99534.59;;;-1.57;89.30
80733;BME280;70130;44.534;18.678;2023-11-19T04:39:51;99527.75;;;-1.58;89.40
80733;BME280;70130;44.534;18.678;2023-11-19T04:42:23;99533.03;;;-1.58;89.20
80733;BME280;70130;44.534;18.678;2023-11-19T04:45:08;99533.34;;;-1.66;89.19
80733;BME280;70130;44.534;18.678;2023-11-19T04:47:38;99533.47;;;-1.61;88.91
80733;BME280;70130;44.534;18.678;2023-11-19T04:50:07;99532.66;;;-1.62;89.28
80733;BME280;70130;44.534;18.678;2023-11-19T04:52:39;99530.16;;;-1.68;89.09
80733;BME280;70130;44.534;18.678;2023-11-19T04:55:19;99518.38;;;-1.78;89.00
80733;BME280;70130;44.534;18.678;2023-11-19T04:57:48;99513.59;;;-1.81;89.18
80733;BME280;70130;44.534;18.678;2023-11-19T05:00:16;99512.66;;;-1.86;89.64
80733;BME280;70130;44.534;18.678;2023-11-19T05:02:48;99497.00;;;-1.81;89.79
80733;BME280;70130;44.534;18.678;2023-11-19T05:05:16;99463.88;;;-1.94;89.35
80733;BME280;70130;44.534;18.678;2023-11-19T05:07:45;99473.22;;;-1.86;89.31
80733;BME280;70130;44.534;18.678;2023-11-19T05:10:14;99466.94;;;-1.85;89.46
80733;BME280;70130;44.534;18.678;2023-11-19T05:12:45;99471.88;;;-1.89;89.44
80733;BME280;70130;44.534;18.678;2023-11-19T05:15:14;99457.91;;;-2.01;89.20
80733;BME280;70130;44.534;18.678;2023-11-19T05:17:45;99468.22;;;-1.88;89.33
80733;BME280;70130;44.534;18.678;2023-11-19T05:20:13;99470.94;;;-1.83;89.48
80733;BME280;70130;44.534;18.678;2023-11-19T05:22:42;99467.63;;;-1.78;89.11
80733;BME280;70130;44.534;18.678;2023-11-19T05:25:27;99459.25;;;-1.87;88.96
80733;BME280;70130;44.534;18.678;2023-11-19T05:27:56;99444.88;;;-1.96;89.42
80733;BME280;70130;44.534;18.678;2023-11-19T05:30:24;99451.03;;;-1.90;89.72
80733;BME280;70130;44.534;18.678;2023-11-19T05:32:50;99461.09;;;-1.87;89.46
80733;BME280;70130;44.534;18.678;2023-11-19T05:35:18;99457.81;;;-1.94;89.05
80733;BME280;70130;44.534;18.678;2023-11-19T05:38:02;99473.34;;;-1.93;88.87
80733;BME280;70130;44.534;18.678;2023-11-19T05:40:30;99470.03;;;-2.00;89.20
80733;BME280;70130;44.534;18.678;2023-11-19T05:43:08;99472.66;;;-2.00;89.36
80733;BME280;70130;44.534;18.678;2023-11-19T05:45:36;99471.41;;;-1.97;89.25
80733;BME280;70130;44.534;18.678;2023-11-19T05:48:02;99474.16;;;-2.04;88.98
80733;BME280;70130;44.534;18.678;2023-11-19T05:50:29;99469.94;;;-2.05;89.23
80733;BME280;70130;44.534;18.678;2023-11-19T05:52:55;99467.66;;;-2.13;88.78
80733;BME280;70130;44.534;18.678;2023-11-19T05:55:23;99487.97;;;-1.97;89.06
80733;BME280;70130;44.534;18.678;2023-11-19T05:57:55;99492.78;;;-1.94;89.04
80733;BME280;70130;44.534;18.678;2023-11-19T06:00:24;99487.06;;;-1.91;88.99
80733;BME280;70130;44.534;18.678;2023-11-19T06:02:54;99499.63;;;-1.81;89.06
80733;BME280;70130;44.534;18.678;2023-11-19T06:05:26;99493.78;;;-1.71;89.19
80733;BME280;70130;44.534;18.678;2023-11-19T06:11:16;99486.25;;;-1.68;88.83
80733;BME280;70130;44.534;18.678;2023-11-19T06:13:48;99465.88;;;-1.73;88.30
80733;BME280;70130;44.534;18.678;2023-11-19T06:16:19;99489.31;;;-1.71;88.48
80733;BME280;70130;44.534;18.678;2023-11-19T06:18:45;99491.47;;;-1.56;88.41
80733;BME280;70130;44.534;18.678;2023-11-19T06:21:14;99489.03;;;-1.46;88.26
80733;BME280;70130;44.534;18.678;2023-11-19T06:23:39;99491.22;;;-1.43;87.46
80733;BME280;70130;44.534;18.678;2023-11-19T06:26:05;99483.88;;;-1.41;87.46
80733;BME280;70130;44.534;18.678;2023-11-19T06:28:36;99472.00;;;-1.44;88.21
80733;BME280;70130;44.534;18.678;2023-11-19T06:31:08;99490.84;;;-1.35;87.55
80733;BME280;70130;44.534;18.678;2023-11-19T06:33:39;99485.44;;;-1.28;87.80
80733;BME280;70130;44.534;18.678;2023-11-19T06:36:06;99486.81;;;-1.26;86.50
80733;BME280;70130;44.534;18.678;2023-11-19T06:38:36;99478.22;;;-1.33;86.52
80733;BME280;70130;44.534;18.678;2023-11-19T06:41:01;99498.78;;;-1.18;86.81
80733;BME280;70130;44.534;18.678;2023-11-19T06:43:27;99502.41;;;-1.08;86.43
80733;BME280;70130;44.534;18.678;2023-11-19T06:45:59;99495.88;;;-1.05;86.44
80733;BME280;70130;44.534;18.678;2023-11-19T06:48:24;99479.75;;;-1.09;85.54
80733;BME280;70130;44.534;18.678;2023-11-19T06:50:50;99491.53;;;-0.83;86.12
80733;BME280;70130;44.534;18.678;2023-11-19T06:53:21;99475.97;;;-0.84;86.01
80733;BME280;70130;44.534;18.678;2023-11-19T06:55:47;99473.09;;;-0.66;85.63
80733;BME280;70130;44.534;18.678;2023-11-19T06:58:12;99475.03;;;-0.62;85.55
80733;BME280;70130;44.534;18.678;2023-11-19T07:00:38;99465.38;;;-0.56;85.42
80733;BME280;70130;44.534;18.678;2023-11-19T07:03:31;99487.25;;;-0.39;85.60
80733;BME280;70130;44.534;18.678;2023-11-19T07:05:57;99471.91;;;-0.42;85.54
80733;BME280;70130;44.534;18.678;2023-11-19T07:08:23;99477.09;;;-0.47;85.38
80733;BME280;70130;44.534;18.678;2023-11-19T07:10:48;99488.47;;;-0.30;85.32
80733;BME280;70130;44.534;18.678;2023-11-19T07:13:23;99489.66;;;-0.37;85.34
80733;BME280;70130;44.534;18.678;2023-11-19T07:15:49;99490.22;;;-0.35;85.27
80733;BME280;70130;44.534;18.678;2023-11-19T07:18:14;99488.28;;;-0.23;85.60
80733;BME280;70130;44.534;18.678;2023-11-19T07:20:40;99490.19;;;-0.19;85.58
80733;BME280;70130;44.534;18.678;2023-11-19T07:23:15;99487.97;;;-0.10;85.72
80733;BME280;70130;44.534;18.678;2023-11-19T07:25:47;99482.25;;;-0.02;85.27
80733;BME280;70130;44.534;18.678;2023-11-19T07:28:13;99477.00;;;-0.02;84.56
80733;BME280;70130;44.534;18.678;2023-11-19T07:30:38;99448.53;;;0.00;84.67
80733;BME280;70130;44.534;18.678;2023-11-19T07:33:13;99471.25;;;0.23;84.75
80733;BME280;70130;44.534;18.678;2023-11-19T07:35:39;99468.38;;;0.24;84.18
80733;BME280;70130;44.534;18.678;2023-11-19T07:38:19;99475.19;;;0.42;83.87
80733;BME280;70130;44.534;18.678;2023-11-19T07:40:45;99466.03;;;0.50;83.90
80733;BME280;70130;44.534;18.678;2023-11-19T07:43:11;99469.00;;;0.53;83.97
80733;BME280;70130;44.534;18.678;2023-11-19T07:45:45;99475.25;;;0.69;83.78
80733;BME280;70130;44.534;18.678;2023-11-19T07:48:11;99460.56;;;0.56;83.62
80733;BME280;70130;44.534;18.678;2023-11-19T07:50:41;99474.06;;;0.81;83.62
80733;BME280;70130;44.534;18.678;2023-11-19T07:53:07;99473.38;;;0.91;83.33
80733;BME280;70130;44.534;18.678;2023-11-19T07:55:34;99461.06;;;1.02;83.26
80733;BME280;70130;44.534;18.678;2023-11-19T07:58:02;99436.63;;;0.90;83.34
80733;BME280;70130;44.534;18.678;2023-11-19T08:00:28;99443.69;;;1.11;82.91
80733;BME280;70130;44.534;18.678;2023-11-19T08:02:57;99426.75;;;1.07;82.96
80733;BME280;70130;44.534;18.678;2023-11-19T08:05:22;99439.75;;;1.13;83.04
80733;BME280;70130;44.534;18.678;2023-11-19T08:08:05;99431.16;;;1.28;82.93
80733;BME280;70130;44.534;18.678;2023-11-19T08:10:30;99433.34;;;1.36;83.41
80733;BME280;70130;44.534;18.678;2023-11-19T08:12:58;99427.53;;;1.39;82.66
80733;BME280;70130;44.534;18.678;2023-11-19T08:15:27;99427.88;;;1.48;82.81
80733;BME280;70130;44.534;18.678;2023-11-19T08:17:55;99432.69;;;1.56;82.20
80733;BME280;70130;44.534;18.678;2023-11-19T08:20:21;99432.81;;;1.76;82.30
80733;BME280;70130;44.534;18.678;2023-11-19T08:22:50;99419.59;;;1.76;80.70
80733;BME280;70130;44.534;18.678;2023-11-19T08:25:25;99401.34;;;1.80;80.56
80733;BME280;70130;44.534;18.678;2023-11-19T08:27:50;99405.69;;;1.96;80.85
80733;BME280;70130;44.534;18.678;2023-11-19T08:30:19;99408.94;;;2.18;80.29
80733;BME280;70130;44.534;18.678;2023-11-19T08:32:47;99399.44;;;2.22;80.00
80733;BME280;70130;44.534;18.678;2023-11-19T08:35:16;99389.41;;;2.29;80.48
80733;BME280;70130;44.534;18.678;2023-11-19T08:37:42;99370.09;;;2.39;80.09
80733;BME280;70130;44.534;18.678;2023-11-19T08:40:11;99366.44;;;2.55;79.60
80733;BME280;70130;44.534;18.678;2023-11-19T08:42:37;99383.16;;;2.60;79.47
80733;BME280;70130;44.534;18.678;2023-11-19T08:45:13;99394.03;;;2.69;78.04
80733;BME280;70130;44.534;18.678;2023-11-19T08:47:48;99393.16;;;2.48;79.05
80733;BME280;70130;44.534;18.678;2023-11-19T08:50:13;99400.34;;;2.58;79.35
80733;BME280;70130;44.534;18.678;2023-11-19T08:52:42;99406.72;;;2.62;78.36
80733;BME280;70130;44.534;18.678;2023-11-19T08:55:10;99393.19;;;2.53;78.46
80733;BME280;70130;44.534;18.678;2023-11-19T08:57:37;99399.06;;;2.66;77.63
80733;BME280;70130;44.534;18.678;2023-11-19T09:00:06;99382.09;;;2.77;77.62
80733;BME280;70130;44.534;18.678;2023-11-19T09:02:37;99398.31;;;2.95;77.12
80733;BME280;70130;44.534;18.678;2023-11-19T09:05:04;99407.31;;;2.94;76.17
80733;BME280;70130;44.534;18.678;2023-11-19T09:07:38;99400.69;;;3.07;75.98
80733;BME280;70130;44.534;18.678;2023-11-19T09:10:07;99384.78;;;3.12;74.58
80733;BME280;70130;44.534;18.678;2023-11-19T09:12:34;99366.75;;;3.14;74.73
80733;BME280;70130;44.534;18.678;2023-11-19T09:15:03;99376.31;;;3.30;75.34
80733;BME280;70130;44.534;18.678;2023-11-19T09:17:38;99373.38;;;3.37;74.54
80733;BME280;70130;44.534;18.678;2023-11-19T09:20:04;99351.88;;;3.33;74.61
80733;BME280;70130;44.534;18.678;2023-11-19T09:22:33;99363.00;;;3.45;73.58
80733;BME280;70130;44.534;18.678;2023-11-19T09:25:08;99359.81;;;3.48;74.12
80733;BME280;70130;44.534;18.678;2023-11-19T09:27:37;99342.56;;;3.56;73.80
80733;BME280;70130;44.534;18.678;2023-11-19T09:30:06;99346.53;;;3.69;73.90
80733;BME280;70130;44.534;18.678;2023-11-19T09:32:32;99364.53;;;3.82;73.44
80733;BME280;70130;44.534;18.678;2023-11-19T09:35:01;99348.09;;;3.75;72.77
80733;BME280;70130;44.534;18.678;2023-11-19T09:37:28;99345.91;;;3.92;73.91
80733;BME280;70130;44.534;18.678;2023-11-19T09:39:56;99334.75;;;3.90;73.16
80733;BME280;70130;44.534;18.678;2023-11-19T09:42:25;99354.78;;;4.26;73.58
80733;BME280;70130;44.534;18.678;2023-11-19T09:44:53;99356.34;;;4.38;72.30
80733;BME280;70130;44.534;18.678;2023-11-19T09:47:20;99324.94;;;4.40;71.58
80733;BME280;70130;44.534;18.678;2023-11-19T09:49:55;99316.19;;;4.39;72.30
80733;BME280;70130;44.534;18.678;2023-11-19T09:52:21;99335.50;;;4.55;70.62
80733;BME280;70130;44.534;18.678;2023-11-19T09:54:50;99328.53;;;4.59;69.56
80733;BME280;70130;44.534;18.678;2023-11-19T09:57:16;99320.28;;;4.65;69.59
80733;BME280;70130;44.534;18.678;2023-11-19T09:59:46;99326.38;;;4.66;70.50
80733;BME280;70130;44.534;18.678;2023-11-19T10:02:13;99304.09;;;4.62;69.08
80733;BME280;70130;44.534;18.678;2023-11-19T10:04:41;99306.63;;;4.77;69.42
80733;BME280;70130;44.534;18.678;2023-11-19T10:07:12;99301.78;;;4.84;68.46
80733;BME280;70130;44.534;18.678;2023-11-19T10:09:40;99302.88;;;4.83;67.64
80733;BME280;70130;44.534;18.678;2023-11-19T10:12:08;99299.00;;;4.99;68.11
80733;BME280;70130;44.534;18.678;2023-11-19T10:14:35;99289.75;;;4.92;68.19
80733;BME280;70130;44.534;18.678;2023-11-19T10:17:03;99297.88;;;5.05;66.83
80733;BME280;70130;44.534;18.678;2023-11-19T10:19:29;99269.47;;;5.01;67.69
80733;BME280;70130;44.534;18.678;2023-11-19T10:22:02;99280.59;;;5.08;67.85
80733;BME280;70130;44.534;18.678;2023-11-19T10:24:33;99265.41;;;5.08;67.23
80733;BME280;70130;44.534;18.678;2023-11-19T10:27:01;99254.84;;;4.98;67.04
80733;BME280;70130;44.534;18.678;2023-11-19T10:29:39;99247.91;;;5.02;67.55
80733;BME280;70130;44.534;18.678;2023-11-19T10:32:07;99237.06;;;4.94;67.74
80733;BME280;70130;44.534;18.678;2023-11-19T10:34:36;99220.34;;;4.93;66.47
80733;BME280;70130;44.534;18.678;2023-11-19T10:37:05;99233.47;;;5.08;67.10
80733;BME280;70130;44.534;18.678;2023-11-19T10:39:52;99226.94;;;5.25;67.14
80733;BME280;70130;44.534;18.678;2023-11-19T10:42:20;99200.78;;;5.32;67.45
80733;BME280;70130;44.534;18.678;2023-11-19T10:44:49;99180.38;;;5.46;65.28
80733;BME280;70130;44.534;18.678;2023-11-19T10:47:22;99163.63;;;5.45;67.36
80733;BME280;70130;44.534;18.678;2023-11-19T10:49:51;99150.47;;;5.54;65.33
80733;BME280;70130;44.534;18.678;2023-11-19T10:52:20;99125.28;;;5.65;66.14
80733;BME280;70130;44.534;18.678;2023-11-19T10:54:50;99132.63;;;5.73;65.74
80733;BME280;70130;44.534;18.678;2023-11-19T10:57:26;99137.94;;;5.73;66.74
80733;BME280;70130;44.534;18.678;2023-11-19T11:00:01;99122.13;;;5.63;66.79
80733;BME280;70130;44.534;18.678;2023-11-19T11:02:29;99122.84;;;5.87;64.88
80733;BME280;70130;44.534;18.678;2023-11-19T11:05:00;99128.34;;;5.77;66.15
80733;BME280;70130;44.534;18.678;2023-11-19T11:07:29;99149.63;;;5.77;66.50
80733;BME280;70130;44.534;18.678;2023-11-19T11:09:56;99139.34;;;5.71;67.39
80733;BME280;70130;44.534;18.678;2023-11-19T11:12:24;99145.44;;;5.71;66.87
80733;BME280;70130;44.534;18.678;2023-11-19T11:14:50;99143.72;;;5.80;66.88
80733;BME280;70130;44.534;18.678;2023-11-19T11:17:24;99156.91;;;5.90;66.98
80733;BME280;70130;44.534;18.678;2023-11-19T11:19:55;99128.75;;;5.84;66.27
80733;BME280;70130;44.534;18.678;2023-11-19T11:22:24;99109.63;;;6.01;66.09
80733;BME280;70130;44.534;18.678;2023-11-19T11:25:06;99107.00;;;6.15;66.00
80733;BME280;70130;44.534;18.678;2023-11-19T11:28:05;99097.06;;;6.34;64.08
80733;BME280;70130;44.534;18.678;2023-11-19T11:30:55;99109.53;;;6.52;63.20
80733;BME280;70130;44.534;18.678;2023-11-19T11:36:27;99093.06;;;6.77;61.60
80733;BME280;70130;44.534;18.678;2023-11-19T11:38:58;99093.78;;;6.83;62.39
80733;BME280;70130;44.534;18.678;2023-11-19T11:41:33;99087.94;;;6.67;62.32
80733;BME280;70130;44.534;18.678;2023-11-19T11:44:01;99092.09;;;6.73;62.33
80733;BME280;70130;44.534;18.678;2023-11-19T11:49:02;99085.38;;;6.89;62.08
80733;BME280;70130;44.534;18.678;2023-11-19T11:57:10;99062.88;;;6.96;62.41
80733;BME280;70130;44.534;18.678;2023-11-19T11:59:46;99061.44;;;7.12;59.33
80733;BME280;70130;44.534;18.678;2023-11-19T12:02:20;99067.53;;;7.26;58.32
80733;BME280;70130;44.534;18.678;2023-11-19T12:04:51;99074.47;;;7.27;57.51
80733;BME280;70130;44.534;18.678;2023-11-19T12:07:24;99076.22;;;7.31;57.81
80733;BME280;70130;44.534;18.678;2023-11-19T12:10:06;99060.00;;;7.42;56.45
80733;BME280;70130;44.534;18.678;2023-11-19T12:12:40;99063.72;;;7.54;54.74
80733;BME280;70130;44.534;18.678;2023-11-19T12:15:10;99060.50;;;7.66;55.31
80733;BME280;70130;44.534;18.678;2023-11-19T12:17:37;99052.50;;;7.66;55.38
80733;BME280;70130;44.534;18.678;2023-11-19T12:20:12;99048.13;;;7.70;55.28
80733;BME280;70130;44.534;18.678;2023-11-19T12:22:47;99048.22;;;7.78;55.79
80733;BME280;70130;44.534;18.678;2023-11-19T12:25:15;99040.53;;;7.86;53.98
80733;BME280;70130;44.534;18.678;2023-11-19T12:27:51;99048.47;;;7.99;53.35
80733;BME280;70130;44.534;18.678;2023-11-19T12:30:21;99041.88;;;7.97;54.71
80733;BME280;70130;44.534;18.678;2023-11-19T12:33:08;99040.78;;;7.98;53.61
80733;BME280;70130;44.534;18.678;2023-11-19T12:35:39;99021.47;;;8.01;53.22
80733;BME280;70130;44.534;18.678;2023-11-19T12:38:25;98991.53;;;7.90;54.14
80733;BME280;70130;44.534;18.678;2023-11-19T12:41:03;99026.25;;;8.12;53.05
80733;BME280;70130;44.534;18.678;2023-11-19T12:43:33;99012.41;;;8.41;50.18
80733;BME280;70130;44.534;18.678;2023-11-19T12:46:21;98995.66;;;8.27;52.70
80733;BME280;70130;44.534;18.678;2023-11-19T12:48:56;98986.75;;;8.32;53.92
80733;BME280;70130;44.534;18.678;2023-11-19T12:51:32;99001.81;;;8.28;53.89
80733;BME280;70130;44.534;18.678;2023-11-19T12:54:00;99004.28;;;8.24;54.79
80733;BME280;70130;44.534;18.678;2023-11-19T12:56:35;98994.84;;;8.18;53.35
80733;BME280;70130;44.534;18.678;2023-11-19T12:59:15;99001.22;;;8.31;53.04
80733;BME280;70130;44.534;18.678;2023-11-19T13:01:59;99003.13;;;8.39;54.90
80733;BME280;70130;44.534;18.678;2023-11-19T13:04:31;98989.59;;;8.35;54.68
80733;BME280;70130;44.534;18.678;2023-11-19T13:07:00;98987.44;;;8.46;55.37
80733;BME280;70130;44.534;18.678;2023-11-19T13:09:29;98992.13;;;8.40;56.06
80733;BME280;70130;44.534;18.678;2023-11-19T13:11:58;98991.19;;;8.45;55.10
80733;BME280;70130;44.534;18.678;2023-11-19T13:14:37;98985.06;;;8.44;55.48
80733;BME280;70130;44.534;18.678;2023-11-19T13:17:03;98975.44;;;8.35;54.77
80733;BME280;70130;44.534;18.678;2023-11-19T13:19:33;98992.25;;;8.35;54.73
80733;BME280;70130;44.534;18.678;2023-11-19T13:22:01;98985.53;;;8.38;53.64
80733;BME280;70130;44.534;18.678;2023-11-19T13:24:30;98976.06;;;8.40;56.20
80733;BME280;70130;44.534;18.678;2023-11-19T13:26:58;98981.56;;;8.35;56.46
80733;BME280;70130;44.534;18.678;2023-11-19T13:29:42;98977.63;;;8.33;56.28
80733;BME280;70130;44.534;18.678;2023-11-19T13:32:10;98983.88;;;8.28;57.21
80733;BME280;70130;44.534;18.678;2023-11-19T13:34:39;98954.88;;;8.13;55.25